Impacts METAR Board
IDs:

KGPM - Grand Prairie Muni, TX, US

Updated at: 1400 UTC 13 Dec 2019
Potential Impact None Slight Moderate High
Time 13/02Z 13/03Z 13/04Z 13/05Z 13/06Z 13/07Z 13/08Z 13/09Z 13/10Z 13/11Z 13/12Z 13/13Z 13/14Z
Temp51 50 49 48 46 47 47 47 46 45 44 43 45
Dewpt41 41 41 42 42 44 44 43 41 41 41 40 39
Altim30.06 30.06 30.06 30.05 30.02 29.99 29.97 29.94 29.93 29.91 29.91 29.91 29.92
VIS10 10 10 10 10 10 10 10 10 10 10 10 10
CIG-- -- -- -- -- -- -- -- -- -- -- -- --
CoverCLRCLRCLRCLRCLRCLRCLRCLRCLRCLRCLRCLRSKC
FltCatVFRVFRVFRVFRVFRVFRVFRVFRVFRVFRVFRVFRVFR
WX--------------------------
WDir1401500150140170170170190180180200190
WSpd5 5 0 3 3 4 4 5 5 7 4 5 5
WGst-- -- -- -- -- -- -- -- -- -- -- -- --
Raw hourly METARs
KGPM 130155Z AUTO 14005KT 10SM CLR 11/05 A3006 RMK AO2 T01050048
KGPM 130255Z AUTO 15005KT 10SM CLR 10/05 A3006 RMK AO2 T01000050
KGPM 130355Z AUTO 00000KT 10SM CLR 09/05 A3006 RMK AO2 T00930051
KGPM 130455Z AUTO 15003KT 10SM CLR 09/05 A3005 RMK AO2 T00870053
KGPM 130555Z AUTO 14003KT 10SM CLR 08/06 A3002 RMK AO2 T00800055 10118 20080 401440031
KGPM 130655Z AUTO 17004KT 10SM CLR 09/07 A2999 RMK AO2 T00860065
KGPM 130755Z AUTO 17004KT 10SM CLR 09/07 A2997 RMK AO2 T00850066
KGPM 130855Z AUTO 17005KT 10SM CLR 08/06 A2994 RMK AO2 T00840060
KGPM 130955Z AUTO 19005KT 10SM CLR 08/05 A2993 RMK AO2 T00800052
KGPM 131055Z AUTO 18007KT 10SM CLR 07/05 A2991 RMK AO2 T00700048
KGPM 131155Z AUTO 18004KT 10SM CLR 07/05 A2991 RMK AO2 T00660048 10089 20066
KGPM 131255Z AUTO 20005KT 10SM CLR 06/04 A2991 RMK AO2 T00630042
KGPM 131350Z 19005KT 10SM SKC 07/04 A2992



Page loaded:  14:01 UTC  |   06:01 AM Pacific  |   07:01 AM Mountain  |   08:01 AM Central  |   09:01 AM Eastern

 

ADVISORIES

FORECASTS

FORECASTS

OBSERVATIONS

USER TOOLS

ABOUT US